sensor_id;sensor_type;location;lat;lon;timestamp;P1;durP1;ratioP1;P2;durP2;ratioP2
7330;SDS011;3706;49.198;7.064;2023-05-29T00:02:08;8.90;;;5.93;;
7330;SDS011;3706;49.198;7.064;2023-05-29T00:04:35;8.30;;;5.53;;
7330;SDS011;3706;49.198;7.064;2023-05-29T00:07:03;10.00;;;5.60;;
7330;SDS011;3706;49.198;7.064;2023-05-29T00:09:30;10.30;;;6.50;;
7330;SDS011;3706;49.198;7.064;2023-05-29T00:11:57;8.03;;;6.00;;
7330;SDS011;3706;49.198;7.064;2023-05-29T00:14:27;11.00;;;6.27;;
7330;SDS011;3706;49.198;7.064;2023-05-29T00:16:54;8.57;;;6.10;;
7330;SDS011;3706;49.198;7.064;2023-05-29T00:19:21;10.47;;;6.53;;
7330;SDS011;3706;49.198;7.064;2023-05-29T00:21:50;8.77;;;5.90;;
7330;SDS011;3706;49.198;7.064;2023-05-29T00:24:17;11.47;;;6.47;;
7330;SDS011;3706;49.198;7.064;2023-05-29T00:26:45;11.77;;;6.33;;
7330;SDS011;3706;49.198;7.064;2023-05-29T00:29:12;8.83;;;6.40;;
7330;SDS011;3706;49.198;7.064;2023-05-29T00:31:41;10.60;;;6.10;;
7330;SDS011;3706;49.198;7.064;2023-05-29T00:34:07;9.23;;;6.10;;
7330;SDS011;3706;49.198;7.064;2023-05-29T00:36:35;8.73;;;5.87;;
7330;SDS011;3706;49.198;7.064;2023-05-29T00:39:02;8.93;;;6.20;;
7330;SDS011;3706;49.198;7.064;2023-05-29T00:41:28;9.13;;;6.00;;
7330;SDS011;3706;49.198;7.064;2023-05-29T00:43:55;6.73;;;5.70;;
7330;SDS011;3706;49.198;7.064;2023-05-29T00:46:22;8.37;;;6.13;;
7330;SDS011;3706;49.198;7.064;2023-05-29T00:48:51;8.97;;;6.07;;
7330;SDS011;3706;49.198;7.064;2023-05-29T00:51:18;8.00;;;5.70;;
7330;SDS011;3706;49.198;7.064;2023-05-29T00:53:45;10.30;;;6.03;;
7330;SDS011;3706;49.198;7.064;2023-05-29T00:56:13;7.73;;;6.10;;
7330;SDS011;3706;49.198;7.064;2023-05-29T00:58:41;7.43;;;5.57;;
7330;SDS011;3706;49.198;7.064;2023-05-29T01:01:08;8.93;;;5.90;;
7330;SDS011;3706;49.198;7.064;2023-05-29T01:03:36;8.57;;;5.60;;
7330;SDS011;3706;49.198;7.064;2023-05-29T01:06:05;9.40;;;5.90;;
7330;SDS011;3706;49.198;7.064;2023-05-29T01:08:32;6.87;;;5.80;;
7330;SDS011;3706;49.198;7.064;2023-05-29T01:11:00;8.70;;;5.50;;
7330;SDS011;3706;49.198;7.064;2023-05-29T01:13:34;9.17;;;5.80;;
7330;SDS011;3706;49.198;7.064;2023-05-29T01:16:05;7.83;;;5.30;;
7330;SDS011;3706;49.198;7.064;2023-05-29T01:18:39;7.23;;;5.60;;
7330;SDS011;3706;49.198;7.064;2023-05-29T01:21:20;9.73;;;5.33;;
7330;SDS011;3706;49.198;7.064;2023-05-29T01:23:57;8.10;;;5.20;;
7330;SDS011;3706;49.198;7.064;2023-05-29T01:26:45;8.23;;;5.83;;
7330;SDS011;3706;49.198;7.064;2023-05-29T01:29:18;10.20;;;6.00;;
7330;SDS011;3706;49.198;7.064;2023-05-29T01:31:50;7.20;;;5.47;;
7330;SDS011;3706;49.198;7.064;2023-05-29T01:34:18;7.03;;;5.70;;
7330;SDS011;3706;49.198;7.064;2023-05-29T01:36:45;6.87;;;5.70;;
7330;SDS011;3706;49.198;7.064;2023-05-29T01:39:12;8.47;;;5.43;;
7330;SDS011;3706;49.198;7.064;2023-05-29T01:41:40;8.77;;;5.93;;
7330;SDS011;3706;49.198;7.064;2023-05-29T01:44:10;8.00;;;5.67;;
7330;SDS011;3706;49.198;7.064;2023-05-29T01:46:38;7.23;;;5.27;;
7330;SDS011;3706;49.198;7.064;2023-05-29T01:49:06;9.00;;;5.50;;
7330;SDS011;3706;49.198;7.064;2023-05-29T01:51:34;8.00;;;5.33;;
7330;SDS011;3706;49.198;7.064;2023-05-29T01:54:01;7.53;;;5.93;;
7330;SDS011;3706;49.198;7.064;2023-05-29T01:56:29;9.23;;;5.40;;
7330;SDS011;3706;49.198;7.064;2023-05-29T01:58:57;8.87;;;4.93;;
7330;SDS011;3706;49.198;7.064;2023-05-29T02:01:28;10.37;;;5.97;;
7330;SDS011;3706;49.198;7.064;2023-05-29T02:03:55;8.47;;;5.33;;
7330;SDS011;3706;49.198;7.064;2023-05-29T02:06:22;6.70;;;4.97;;
7330;SDS011;3706;49.198;7.064;2023-05-29T02:08:49;6.90;;;4.77;;
7330;SDS011;3706;49.198;7.064;2023-05-29T02:11:16;7.87;;;5.17;;
7330;SDS011;3706;49.198;7.064;2023-05-29T02:13:43;8.93;;;5.30;;
7330;SDS011;3706;49.198;7.064;2023-05-29T02:16:10;7.80;;;5.50;;
7330;SDS011;3706;49.198;7.064;2023-05-29T02:18:38;7.07;;;4.83;;
7330;SDS011;3706;49.198;7.064;2023-05-29T02:21:06;7.73;;;4.77;;
7330;SDS011;3706;49.198;7.064;2023-05-29T02:23:33;8.40;;;4.77;;
7330;SDS011;3706;49.198;7.064;2023-05-29T02:26:00;13.43;;;5.20;;
7330;SDS011;3706;49.198;7.064;2023-05-29T02:28:27;6.10;;;4.73;;
7330;SDS011;3706;49.198;7.064;2023-05-29T02:30:54;7.10;;;5.27;;
7330;SDS011;3706;49.198;7.064;2023-05-29T02:33:23;7.57;;;5.57;;
7330;SDS011;3706;49.198;7.064;2023-05-29T02:35:52;6.57;;;4.93;;
7330;SDS011;3706;49.198;7.064;2023-05-29T02:38:19;7.17;;;4.77;;
7330;SDS011;3706;49.198;7.064;2023-05-29T02:40:46;8.80;;;4.93;;
7330;SDS011;3706;49.198;7.064;2023-05-29T02:43:13;6.40;;;5.07;;
7330;SDS011;3706;49.198;7.064;2023-05-29T02:45:40;7.67;;;5.03;;
7330;SDS011;3706;49.198;7.064;2023-05-29T02:48:07;6.33;;;5.03;;
7330;SDS011;3706;49.198;7.064;2023-05-29T02:50:45;9.10;;;5.17;;
7330;SDS011;3706;49.198;7.064;2023-05-29T02:53:24;6.03;;;4.37;;
7330;SDS011;3706;49.198;7.064;2023-05-29T02:55:51;9.10;;;4.80;;
7330;SDS011;3706;49.198;7.064;2023-05-29T02:58:18;6.60;;;4.90;;
7330;SDS011;3706;49.198;7.064;2023-05-29T03:00:46;11.83;;;5.67;;
7330;SDS011;3706;49.198;7.064;2023-05-29T03:03:13;6.57;;;4.73;;
7330;SDS011;3706;49.198;7.064;2023-05-29T03:05:40;9.57;;;4.93;;
7330;SDS011;3706;49.198;7.064;2023-05-29T03:08:07;7.17;;;4.60;;
7330;SDS011;3706;49.198;7.064;2023-05-29T03:10:35;7.57;;;5.00;;
7330;SDS011;3706;49.198;7.064;2023-05-29T03:13:02;5.97;;;4.60;;
7330;SDS011;3706;49.198;7.064;2023-05-29T03:15:30;8.27;;;5.70;;
7330;SDS011;3706;49.198;7.064;2023-05-29T03:17:57;5.83;;;4.33;;
7330;SDS011;3706;49.198;7.064;2023-05-29T03:20:23;7.00;;;4.33;;
7330;SDS011;3706;49.198;7.064;2023-05-29T03:22:51;6.37;;;4.50;;
7330;SDS011;3706;49.198;7.064;2023-05-29T03:25:18;6.27;;;5.03;;
7330;SDS011;3706;49.198;7.064;2023-05-29T03:27:47;6.57;;;4.73;;
7330;SDS011;3706;49.198;7.064;2023-05-29T03:30:14;5.63;;;4.23;;
7330;SDS011;3706;49.198;7.064;2023-05-29T03:32:41;10.17;;;4.80;;
7330;SDS011;3706;49.198;7.064;2023-05-29T03:35:08;10.50;;;4.93;;
7330;SDS011;3706;49.198;7.064;2023-05-29T03:37:34;5.47;;;4.60;;
7330;SDS011;3706;49.198;7.064;2023-05-29T03:40:01;7.13;;;4.47;;
7330;SDS011;3706;49.198;7.064;2023-05-29T03:42:30;6.43;;;4.30;;
7330;SDS011;3706;49.198;7.064;2023-05-29T03:44:58;6.87;;;5.13;;
7330;SDS011;3706;49.198;7.064;2023-05-29T03:47:25;4.67;;;3.90;;
7330;SDS011;3706;49.198;7.064;2023-05-29T03:49:52;7.43;;;4.57;;
7330;SDS011;3706;49.198;7.064;2023-05-29T03:52:20;8.63;;;4.80;;
7330;SDS011;3706;49.198;7.064;2023-05-29T03:54:47;6.63;;;4.27;;
7330;SDS011;3706;49.198;7.064;2023-05-29T03:57:14;7.57;;;4.50;;
7330;SDS011;3706;49.198;7.064;2023-05-29T03:59:41;6.07;;;4.43;;
7330;SDS011;3706;49.198;7.064;2023-05-29T04:02:09;5.87;;;4.50;;
7330;SDS011;3706;49.198;7.064;2023-05-29T04:04:36;6.67;;;4.60;;
7330;SDS011;3706;49.198;7.064;2023-05-29T04:07:04;6.43;;;4.50;;
7330;SDS011;3706;49.198;7.064;2023-05-29T04:09:32;7.07;;;4.60;;
7330;SDS011;3706;49.198;7.064;2023-05-29T04:11:59;6.57;;;4.40;;
7330;SDS011;3706;49.198;7.064;2023-05-29T04:14:27;6.60;;;4.60;;
7330;SDS011;3706;49.198;7.064;2023-05-29T04:16:54;4.57;;;4.00;;
7330;SDS011;3706;49.198;7.064;2023-05-29T04:19:22;6.43;;;4.27;;
7330;SDS011;3706;49.198;7.064;2023-05-29T04:21:49;5.03;;;4.33;;
7330;SDS011;3706;49.198;7.064;2023-05-29T04:24:16;7.00;;;4.30;;
7330;SDS011;3706;49.198;7.064;2023-05-29T04:26:43;7.93;;;4.43;;
7330;SDS011;3706;49.198;7.064;2023-05-29T04:29:11;6.47;;;4.30;;
7330;SDS011;3706;49.198;7.064;2023-05-29T04:31:38;6.77;;;4.20;;
7330;SDS011;3706;49.198;7.064;2023-05-29T04:34:05;5.50;;;4.03;;
7330;SDS011;3706;49.198;7.064;2023-05-29T04:36:34;4.53;;;3.90;;
7330;SDS011;3706;49.198;7.064;2023-05-29T04:39:02;5.30;;;3.80;;
7330;SDS011;3706;49.198;7.064;2023-05-29T04:41:29;5.13;;;4.33;;
7330;SDS011;3706;49.198;7.064;2023-05-29T04:43:57;6.43;;;4.30;;
7330;SDS011;3706;49.198;7.064;2023-05-29T04:46:24;5.63;;;4.30;;
7330;SDS011;3706;49.198;7.064;2023-05-29T04:48:51;7.40;;;4.43;;
7330;SDS011;3706;49.198;7.064;2023-05-29T04:51:18;4.50;;;3.83;;
7330;SDS011;3706;49.198;7.064;2023-05-29T04:53:47;6.33;;;4.10;;
7330;SDS011;3706;49.198;7.064;2023-05-29T04:56:15;5.80;;;4.10;;
7330;SDS011;3706;49.198;7.064;2023-05-29T04:58:42;4.70;;;3.37;;
7330;SDS011;3706;49.198;7.064;2023-05-29T05:01:09;7.70;;;3.67;;
7330;SDS011;3706;49.198;7.064;2023-05-29T05:03:39;5.30;;;3.63;;
7330;SDS011;3706;49.198;7.064;2023-05-29T05:06:06;5.43;;;3.93;;
7330;SDS011;3706;49.198;7.064;2023-05-29T05:08:33;5.37;;;3.70;;
7330;SDS011;3706;49.198;7.064;2023-05-29T05:11:02;5.53;;;3.70;;
7330;SDS011;3706;49.198;7.064;2023-05-29T05:13:31;4.80;;;3.50;;
7330;SDS011;3706;49.198;7.064;2023-05-29T05:15:58;3.80;;;3.40;;
7330;SDS011;3706;49.198;7.064;2023-05-29T05:18:25;4.53;;;3.73;;
7330;SDS011;3706;49.198;7.064;2023-05-29T05:20:52;5.87;;;3.37;;
7330;SDS011;3706;49.198;7.064;2023-05-29T05:23:18;3.80;;;3.10;;
7330;SDS011;3706;49.198;7.064;2023-05-29T05:25:45;6.43;;;3.80;;
7330;SDS011;3706;49.198;7.064;2023-05-29T05:28:14;4.90;;;3.17;;
7330;SDS011;3706;49.198;7.064;2023-05-29T05:30:41;4.93;;;3.20;;
7330;SDS011;3706;49.198;7.064;2023-05-29T05:33:08;5.37;;;3.23;;
7330;SDS011;3706;49.198;7.064;2023-05-29T05:35:35;6.50;;;3.67;;
7330;SDS011;3706;49.198;7.064;2023-05-29T05:38:01;5.50;;;3.23;;
7330;SDS011;3706;49.198;7.064;2023-05-29T05:40:29;6.87;;;3.73;;
7330;SDS011;3706;49.198;7.064;2023-05-29T05:42:56;3.73;;;3.07;;
7330;SDS011;3706;49.198;7.064;2023-05-29T05:45:24;5.17;;;3.33;;
7330;SDS011;3706;49.198;7.064;2023-05-29T05:47:51;6.57;;;3.47;;
7330;SDS011;3706;49.198;7.064;2023-05-29T05:50:18;5.00;;;3.53;;
7330;SDS011;3706;49.198;7.064;2023-05-29T05:52:46;3.97;;;3.07;;
7330;SDS011;3706;49.198;7.064;2023-05-29T05:55:13;5.83;;;3.53;;
7330;SDS011;3706;49.198;7.064;2023-05-29T05:57:40;7.07;;;3.27;;
7330;SDS011;3706;49.198;7.064;2023-05-29T06:00:07;4.27;;;3.30;;
7330;SDS011;3706;49.198;7.064;2023-05-29T06:02:39;5.37;;;3.53;;
7330;SDS011;3706;49.198;7.064;2023-05-29T06:05:08;7.80;;;3.50;;
7330;SDS011;3706;49.198;7.064;2023-05-29T06:07:36;4.90;;;3.33;;
7330;SDS011;3706;49.198;7.064;2023-05-29T06:10:03;4.37;;;3.33;;
7330;SDS011;3706;49.198;7.064;2023-05-29T06:12:31;7.37;;;3.10;;
7330;SDS011;3706;49.198;7.064;2023-05-29T06:14:59;4.30;;;3.23;;
7330;SDS011;3706;49.198;7.064;2023-05-29T06:17:26;4.70;;;3.10;;
7330;SDS011;3706;49.198;7.064;2023-05-29T06:19:55;4.70;;;3.43;;
7330;SDS011;3706;49.198;7.064;2023-05-29T06:22:22;5.03;;;2.90;;
7330;SDS011;3706;49.198;7.064;2023-05-29T06:24:49;5.97;;;3.50;;
7330;SDS011;3706;49.198;7.064;2023-05-29T06:27:16;5.37;;;3.10;;
7330;SDS011;3706;49.198;7.064;2023-05-29T06:29:43;3.93;;;3.10;;
7330;SDS011;3706;49.198;7.064;2023-05-29T06:32:10;6.40;;;3.22;;
7330;SDS011;3706;49.198;7.064;2023-05-29T06:34:37;6.15;;;3.10;;
7330;SDS011;3706;49.198;7.064;2023-05-29T06:37:05;5.30;;;3.33;;
7330;SDS011;3706;49.198;7.064;2023-05-29T06:39:32;5.45;;;3.40;;
7330;SDS011;3706;49.198;7.064;2023-05-29T06:41:59;4.95;;;3.20;;
7330;SDS011;3706;49.198;7.064;2023-05-29T06:44:27;5.63;;;3.30;;
7330;SDS011;3706;49.198;7.064;2023-05-29T06:46:54;4.60;;;2.90;;
7330;SDS011;3706;49.198;7.064;2023-05-29T06:49:21;4.72;;;3.38;;
7330;SDS011;3706;49.198;7.064;2023-05-29T06:51:48;4.63;;;3.50;;
7330;SDS011;3706;49.198;7.064;2023-05-29T06:54:19;4.40;;;3.47;;
7330;SDS011;3706;49.198;7.064;2023-05-29T06:56:46;4.43;;;2.90;;
7330;SDS011;3706;49.198;7.064;2023-05-29T06:59:13;5.85;;;3.08;;
7330;SDS011;3706;49.198;7.064;2023-05-29T07:01:58;4.53;;;2.97;;
7330;SDS011;3706;49.198;7.064;2023-05-29T07:04:25;5.85;;;3.20;;
7330;SDS011;3706;49.198;7.064;2023-05-29T07:06:52;6.13;;;3.38;;
7330;SDS011;3706;49.198;7.064;2023-05-29T07:09:20;5.28;;;3.33;;
7330;SDS011;3706;49.198;7.064;2023-05-29T07:11:47;6.60;;;3.40;;
7330;SDS011;3706;49.198;7.064;2023-05-29T07:14:14;7.20;;;3.92;;
7330;SDS011;3706;49.198;7.064;2023-05-29T07:16:41;5.28;;;3.22;;
7330;SDS011;3706;49.198;7.064;2023-05-29T07:19:08;4.50;;;3.17;;
7330;SDS011;3706;49.198;7.064;2023-05-29T07:21:36;3.78;;;3.10;;
7330;SDS011;3706;49.198;7.064;2023-05-29T07:24:03;5.65;;;3.42;;
7330;SDS011;3706;49.198;7.064;2023-05-29T07:26:32;5.28;;;3.30;;
7330;SDS011;3706;49.198;7.064;2023-05-29T07:28:59;6.18;;;3.67;;
7330;SDS011;3706;49.198;7.064;2023-05-29T07:31:26;6.38;;;3.05;;
7330;SDS011;3706;49.198;7.064;2023-05-29T07:33:53;4.32;;;2.95;;
7330;SDS011;3706;49.198;7.064;2023-05-29T07:36:21;5.78;;;3.05;;
7330;SDS011;3706;49.198;7.064;2023-05-29T07:38:48;5.63;;;3.20;;
7330;SDS011;3706;49.198;7.064;2023-05-29T07:41:15;4.65;;;3.08;;
7330;SDS011;3706;49.198;7.064;2023-05-29T07:43:44;4.80;;;2.92;;
7330;SDS011;3706;49.198;7.064;2023-05-29T07:46:15;3.55;;;2.65;;
7330;SDS011;3706;49.198;7.064;2023-05-29T07:48:42;7.32;;;3.58;;
7330;SDS011;3706;49.198;7.064;2023-05-29T07:51:11;4.82;;;3.42;;
7330;SDS011;3706;49.198;7.064;2023-05-29T07:53:38;5.15;;;3.13;;
7330;SDS011;3706;49.198;7.064;2023-05-29T07:56:05;4.78;;;3.03;;
7330;SDS011;3706;49.198;7.064;2023-05-29T07:58:32;3.78;;;2.83;;
7330;SDS011;3706;49.198;7.064;2023-05-29T08:01:01;4.07;;;3.30;;
7330;SDS011;3706;49.198;7.064;2023-05-29T08:03:27;4.10;;;3.33;;
7330;SDS011;3706;49.198;7.064;2023-05-29T08:05:55;4.53;;;2.85;;
7330;SDS011;3706;49.198;7.064;2023-05-29T08:08:22;5.78;;;3.10;;
7330;SDS011;3706;49.198;7.064;2023-05-29T08:10:49;4.80;;;3.30;;
7330;SDS011;3706;49.198;7.064;2023-05-29T08:13:16;6.15;;;3.15;;
7330;SDS011;3706;49.198;7.064;2023-05-29T08:15:43;8.20;;;2.80;;
7330;SDS011;3706;49.198;7.064;2023-05-29T08:18:12;5.18;;;3.22;;
7330;SDS011;3706;49.198;7.064;2023-05-29T08:20:39;3.35;;;2.92;;
7330;SDS011;3706;49.198;7.064;2023-05-29T08:23:05;4.30;;;3.03;;
7330;SDS011;3706;49.198;7.064;2023-05-29T08:25:32;5.82;;;2.90;;
7330;SDS011;3706;49.198;7.064;2023-05-29T08:27:59;4.88;;;3.08;;
7330;SDS011;3706;49.198;7.064;2023-05-29T08:30:26;4.55;;;3.20;;
7330;SDS011;3706;49.198;7.064;2023-05-29T08:32:53;3.90;;;3.08;;
7330;SDS011;3706;49.198;7.064;2023-05-29T08:35:21;3.42;;;2.83;;
7330;SDS011;3706;49.198;7.064;2023-05-29T08:37:48;3.53;;;2.72;;
7330;SDS011;3706;49.198;7.064;2023-05-29T08:40:15;4.68;;;3.03;;
7330;SDS011;3706;49.198;7.064;2023-05-29T08:42:43;4.25;;;3.20;;
7330;SDS011;3706;49.198;7.064;2023-05-29T08:45:13;4.60;;;3.10;;
7330;SDS011;3706;49.198;7.064;2023-05-29T08:47:41;3.80;;;2.72;;
7330;SDS011;3706;49.198;7.064;2023-05-29T08:50:07;3.95;;;2.85;;
7330;SDS011;3706;49.198;7.064;2023-05-29T08:52:37;4.38;;;2.90;;
7330;SDS011;3706;49.198;7.064;2023-05-29T08:55:06;3.40;;;2.92;;
7330;SDS011;3706;49.198;7.064;2023-05-29T08:57:33;3.90;;;2.92;;
7330;SDS011;3706;49.198;7.064;2023-05-29T09:00:03;5.65;;;3.08;;
7330;SDS011;3706;49.198;7.064;2023-05-29T09:02:34;6.38;;;3.35;;
7330;SDS011;3706;49.198;7.064;2023-05-29T09:05:02;4.63;;;3.30;;
7330;SDS011;3706;49.198;7.064;2023-05-29T09:07:29;6.05;;;3.13;;
7330;SDS011;3706;49.198;7.064;2023-05-29T09:09:58;4.60;;;3.08;;
7330;SDS011;3706;49.198;7.064;2023-05-29T09:12:25;4.63;;;3.20;;
7330;SDS011;3706;49.198;7.064;2023-05-29T09:14:52;5.93;;;3.40;;
7330;SDS011;3706;49.198;7.064;2023-05-29T09:17:19;3.50;;;3.15;;
7330;SDS011;3706;49.198;7.064;2023-05-29T09:19:47;5.30;;;3.10;;
7330;SDS011;3706;49.198;7.064;2023-05-29T09:22:14;5.10;;;3.00;;
7330;SDS011;3706;49.198;7.064;2023-05-29T09:24:42;4.68;;;3.00;;
7330;SDS011;3706;49.198;7.064;2023-05-29T09:27:13;4.07;;;3.67;;
7330;SDS011;3706;49.198;7.064;2023-05-29T09:33:02;5.78;;;3.38;;
7330;SDS011;3706;49.198;7.064;2023-05-29T09:35:36;6.90;;;3.63;;
7330;SDS011;3706;49.198;7.064;2023-05-29T09:38:04;3.90;;;3.20;;
7330;SDS011;3706;49.198;7.064;2023-05-29T09:40:32;4.88;;;2.95;;
7330;SDS011;3706;49.198;7.064;2023-05-29T09:43:03;4.10;;;3.05;;
7330;SDS011;3706;49.198;7.064;2023-05-29T09:45:32;4.80;;;3.10;;
7330;SDS011;3706;49.198;7.064;2023-05-29T09:48:03;4.72;;;3.28;;
7330;SDS011;3706;49.198;7.064;2023-05-29T09:50:32;5.03;;;3.25;;
7330;SDS011;3706;49.198;7.064;2023-05-29T09:53:00;6.10;;;3.30;;
7330;SDS011;3706;49.198;7.064;2023-05-29T09:55:28;4.43;;;3.33;;
7330;SDS011;3706;49.198;7.064;2023-05-29T09:57:57;7.10;;;3.63;;
7330;SDS011;3706;49.198;7.064;2023-05-29T10:00:26;5.40;;;3.50;;
7330;SDS011;3706;49.198;7.064;2023-05-29T10:02:56;4.32;;;3.35;;
7330;SDS011;3706;49.198;7.064;2023-05-29T10:05:23;5.60;;;3.50;;
7330;SDS011;3706;49.198;7.064;2023-05-29T10:07:51;3.92;;;3.22;;
7330;SDS011;3706;49.198;7.064;2023-05-29T10:10:20;4.22;;;3.30;;
7330;SDS011;3706;49.198;7.064;2023-05-29T10:12:52;3.80;;;3.30;;
7330;SDS011;3706;49.198;7.064;2023-05-29T10:15:22;5.72;;;3.40;;
7330;SDS011;3706;49.198;7.064;2023-05-29T10:18:00;4.85;;;3.58;;
7330;SDS011;3706;49.198;7.064;2023-05-29T10:20:29;4.32;;;3.53;;
7330;SDS011;3706;49.198;7.064;2023-05-29T10:23:00;4.53;;;3.55;;
7330;SDS011;3706;49.198;7.064;2023-05-29T10:25:29;4.32;;;3.30;;
7330;SDS011;3706;49.198;7.064;2023-05-29T10:27:59;5.88;;;3.45;;
7330;SDS011;3706;49.198;7.064;2023-05-29T10:30:33;5.07;;;3.38;;
7330;SDS011;3706;49.198;7.064;2023-05-29T10:33:16;5.75;;;3.35;;
7330;SDS011;3706;49.198;7.064;2023-05-29T10:36:01;4.38;;;3.65;;
7330;SDS011;3706;49.198;7.064;2023-05-29T10:38:33;5.13;;;3.30;;
7330;SDS011;3706;49.198;7.064;2023-05-29T10:43:55;6.13;;;3.28;;
7330;SDS011;3706;49.198;7.064;2023-05-29T10:46:28;5.63;;;3.42;;
7330;SDS011;3706;49.198;7.064;2023-05-29T10:49:31;5.78;;;3.55;;
7330;SDS011;3706;49.198;7.064;2023-05-29T10:52:03;7.07;;;3.40;;
7330;SDS011;3706;49.198;7.064;2023-05-29T10:54:40;4.15;;;3.38;;
7330;SDS011;3706;49.198;7.064;2023-05-29T10:57:16;5.82;;;5.25;;
7330;SDS011;3706;49.198;7.064;2023-05-29T10:59:44;4.55;;;3.83;;
7330;SDS011;3706;49.198;7.064;2023-05-29T11:02:11;8.82;;;3.50;;
7330;SDS011;3706;49.198;7.064;2023-05-29T11:04:45;4.90;;;3.65;;
7330;SDS011;3706;49.198;7.064;2023-05-29T11:07:32;5.93;;;3.58;;
7330;SDS011;3706;49.198;7.064;2023-05-29T11:10:10;4.93;;;3.92;;
7330;SDS011;3706;49.198;7.064;2023-05-29T11:15:23;4.60;;;3.40;;
7330;SDS011;3706;49.198;7.064;2023-05-29T11:17:51;5.40;;;3.72;;
7330;SDS011;3706;49.198;7.064;2023-05-29T11:20:27;9.90;;;3.58;;
7330;SDS011;3706;49.198;7.064;2023-05-29T11:23:01;4.82;;;3.58;;
7330;SDS011;3706;49.198;7.064;2023-05-29T11:25:33;5.15;;;3.65;;
7330;SDS011;3706;49.198;7.064;2023-05-29T11:28:01;5.70;;;3.97;;
7330;SDS011;3706;49.198;7.064;2023-05-29T11:30:39;6.15;;;3.92;;
7330;SDS011;3706;49.198;7.064;2023-05-29T11:33:08;4.65;;;3.78;;
7330;SDS011;3706;49.198;7.064;2023-05-29T11:35:42;4.35;;;3.63;;
7330;SDS011;3706;49.198;7.064;2023-05-29T11:38:11;5.63;;;3.75;;
7330;SDS011;3706;49.198;7.064;2023-05-29T11:40:41;7.30;;;4.13;;
7330;SDS011;3706;49.198;7.064;2023-05-29T11:43:08;5.18;;;3.78;;
7330;SDS011;3706;49.198;7.064;2023-05-29T11:45:37;5.70;;;3.65;;
7330;SDS011;3706;49.198;7.064;2023-05-29T11:48:04;6.15;;;3.88;;
7330;SDS011;3706;49.198;7.064;2023-05-29T11:50:32;5.85;;;4.35;;
7330;SDS011;3706;49.198;7.064;2023-05-29T11:53:01;5.88;;;4.05;;
7330;SDS011;3706;49.198;7.064;2023-05-29T11:55:28;5.40;;;3.83;;
7330;SDS011;3706;49.198;7.064;2023-05-29T11:57:56;6.70;;;3.95;;
7330;SDS011;3706;49.198;7.064;2023-05-29T12:00:24;5.45;;;4.22;;
7330;SDS011;3706;49.198;7.064;2023-05-29T12:02:52;5.95;;;3.80;;
7330;SDS011;3706;49.198;7.064;2023-05-29T12:05:19;6.30;;;4.07;;
7330;SDS011;3706;49.198;7.064;2023-05-29T12:07:46;4.85;;;3.80;;
7330;SDS011;3706;49.198;7.064;2023-05-29T12:10:16;4.85;;;3.97;;
7330;SDS011;3706;49.198;7.064;2023-05-29T12:12:47;6.68;;;4.00;;
7330;SDS011;3706;49.198;7.064;2023-05-29T12:15:15;7.55;;;4.00;;
7330;SDS011;3706;49.198;7.064;2023-05-29T12:17:43;5.93;;;4.20;;
7330;SDS011;3706;49.198;7.064;2023-05-29T12:20:11;7.78;;;3.70;;
7330;SDS011;3706;49.198;7.064;2023-05-29T12:22:39;4.72;;;3.78;;
7330;SDS011;3706;49.198;7.064;2023-05-29T12:25:09;4.00;;;3.60;;
7330;SDS011;3706;49.198;7.064;2023-05-29T12:27:39;4.10;;;3.53;;
7330;SDS011;3706;49.198;7.064;2023-05-29T12:30:11;8.25;;;4.35;;
7330;SDS011;3706;49.198;7.064;2023-05-29T12:32:41;6.60;;;4.25;;
7330;SDS011;3706;49.198;7.064;2023-05-29T12:35:15;4.63;;;4.05;;
7330;SDS011;3706;49.198;7.064;2023-05-29T12:37:44;4.57;;;3.70;;
7330;SDS011;3706;49.198;7.064;2023-05-29T12:40:15;5.13;;;3.72;;
7330;SDS011;3706;49.198;7.064;2023-05-29T12:42:46;5.82;;;3.97;;
7330;SDS011;3706;49.198;7.064;2023-05-29T12:45:14;6.68;;;4.13;;
7330;SDS011;3706;49.198;7.064;2023-05-29T12:47:49;4.53;;;4.03;;
7330;SDS011;3706;49.198;7.064;2023-05-29T12:50:21;5.90;;;3.97;;
7330;SDS011;3706;49.198;7.064;2023-05-29T12:52:53;4.82;;;3.70;;
7330;SDS011;3706;49.198;7.064;2023-05-29T12:55:21;6.57;;;3.92;;
7330;SDS011;3706;49.198;7.064;2023-05-29T12:57:53;6.03;;;4.15;;
7330;SDS011;3706;49.198;7.064;2023-05-29T13:00:23;6.47;;;4.03;;
7330;SDS011;3706;49.198;7.064;2023-05-29T13:02:50;5.60;;;4.00;;
7330;SDS011;3706;49.198;7.064;2023-05-29T13:05:17;5.35;;;3.80;;
7330;SDS011;3706;49.198;7.064;2023-05-29T13:07:47;5.43;;;3.40;;
7330;SDS011;3706;49.198;7.064;2023-05-29T13:10:15;6.30;;;4.05;;
7330;SDS011;3706;49.198;7.064;2023-05-29T13:12:43;5.10;;;3.80;;
7330;SDS011;3706;49.198;7.064;2023-05-29T13:15:12;7.90;;;4.30;;
7330;SDS011;3706;49.198;7.064;2023-05-29T13:17:40;4.82;;;3.90;;
7330;SDS011;3706;49.198;7.064;2023-05-29T13:20:08;4.75;;;4.03;;
7330;SDS011;3706;49.198;7.064;2023-05-29T13:22:37;4.72;;;3.58;;
7330;SDS011;3706;49.198;7.064;2023-05-29T13:25:04;7.45;;;4.28;;
7330;SDS011;3706;49.198;7.064;2023-05-29T13:27:33;4.93;;;3.42;;
7330;SDS011;3706;49.198;7.064;2023-05-29T13:30:00;4.45;;;3.60;;
7330;SDS011;3706;49.198;7.064;2023-05-29T13:32:32;4.07;;;3.50;;
7330;SDS011;3706;49.198;7.064;2023-05-29T13:34:59;5.47;;;3.58;;
7330;SDS011;3706;49.198;7.064;2023-05-29T13:37:26;5.00;;;3.50;;
7330;SDS011;3706;49.198;7.064;2023-05-29T13:39:53;8.98;;;3.65;;
7330;SDS011;3706;49.198;7.064;2023-05-29T13:42:20;4.85;;;3.38;;
7330;SDS011;3706;49.198;7.064;2023-05-29T13:44:52;6.00;;;3.13;;
7330;SDS011;3706;49.198;7.064;2023-05-29T13:47:23;7.10;;;3.83;;
7330;SDS011;3706;49.198;7.064;2023-05-29T13:49:55;5.10;;;3.73;;
7330;SDS011;3706;49.198;7.064;2023-05-29T13:52:22;5.07;;;3.90;;
7330;SDS011;3706;49.198;7.064;2023-05-29T13:54:49;5.60;;;3.80;;
7330;SDS011;3706;49.198;7.064;2023-05-29T13:57:16;6.57;;;4.07;;
7330;SDS011;3706;49.198;7.064;2023-05-29T13:59:43;6.10;;;3.75;;
7330;SDS011;3706;49.198;7.064;2023-05-29T14:02:10;3.97;;;3.53;;
7330;SDS011;3706;49.198;7.064;2023-05-29T14:04:39;6.27;;;3.70;;
7330;SDS011;3706;49.198;7.064;2023-05-29T14:07:09;5.10;;;3.43;;
7330;SDS011;3706;49.198;7.064;2023-05-29T14:09:36;6.67;;;3.43;;
7330;SDS011;3706;49.198;7.064;2023-05-29T14:12:03;4.83;;;3.53;;
7330;SDS011;3706;49.198;7.064;2023-05-29T14:14:32;6.33;;;3.50;;
7330;SDS011;3706;49.198;7.064;2023-05-29T14:16:59;5.03;;;3.80;;
7330;SDS011;3706;49.198;7.064;2023-05-29T14:19:26;5.43;;;3.47;;
7330;SDS011;3706;49.198;7.064;2023-05-29T14:21:53;4.70;;;3.77;;
7330;SDS011;3706;49.198;7.064;2023-05-29T14:24:21;4.63;;;3.17;;
7330;SDS011;3706;49.198;7.064;2023-05-29T14:26:49;5.13;;;3.23;;
7330;SDS011;3706;49.198;7.064;2023-05-29T14:29:16;5.97;;;3.83;;
7330;SDS011;3706;49.198;7.064;2023-05-29T14:31:43;4.83;;;3.60;;
7330;SDS011;3706;49.198;7.064;2023-05-29T14:34:11;5.47;;;3.50;;
7330;SDS011;3706;49.198;7.064;2023-05-29T14:36:38;4.70;;;3.23;;
7330;SDS011;3706;49.198;7.064;2023-05-29T14:39:06;7.33;;;3.60;;
7330;SDS011;3706;49.198;7.064;2023-05-29T14:41:35;6.20;;;3.97;;
7330;SDS011;3706;49.198;7.064;2023-05-29T14:44:02;5.83;;;3.43;;
7330;SDS011;3706;49.198;7.064;2023-05-29T14:46:29;4.53;;;3.33;;
7330;SDS011;3706;49.198;7.064;2023-05-29T14:48:57;5.00;;;3.50;;
7330;SDS011;3706;49.198;7.064;2023-05-29T14:51:25;5.03;;;3.73;;
7330;SDS011;3706;49.198;7.064;2023-05-29T14:53:56;3.80;;;2.57;;
7330;SDS011;3706;49.198;7.064;2023-05-29T14:56:23;5.20;;;3.50;;
7330;SDS011;3706;49.198;7.064;2023-05-29T14:58:51;4.63;;;3.60;;
7330;SDS011;3706;49.198;7.064;2023-05-29T15:01:18;4.87;;;3.40;;
7330;SDS011;3706;49.198;7.064;2023-05-29T15:03:45;5.90;;;4.00;;
7330;SDS011;3706;49.198;7.064;2023-05-29T15:06:12;5.33;;;3.13;;
7330;SDS011;3706;49.198;7.064;2023-05-29T15:08:39;5.67;;;3.97;;
7330;SDS011;3706;49.198;7.064;2023-05-29T15:11:08;4.47;;;3.40;;
7330;SDS011;3706;49.198;7.064;2023-05-29T15:13:37;4.70;;;3.20;;
7330;SDS011;3706;49.198;7.064;2023-05-29T15:16:06;4.37;;;3.50;;
7330;SDS011;3706;49.198;7.064;2023-05-29T15:18:33;5.70;;;3.37;;
7330;SDS011;3706;49.198;7.064;2023-05-29T15:21:00;5.90;;;3.67;;
7330;SDS011;3706;49.198;7.064;2023-05-29T15:23:28;7.47;;;3.27;;
7330;SDS011;3706;49.198;7.064;2023-05-29T15:25:55;6.80;;;3.20;;
7330;SDS011;3706;49.198;7.064;2023-05-29T15:28:22;5.13;;;3.60;;
7330;SDS011;3706;49.198;7.064;2023-05-29T15:30:49;4.57;;;3.50;;
7330;SDS011;3706;49.198;7.064;2023-05-29T15:33:18;6.43;;;3.60;;